createdAt,value
2023-05-25T00:02:15.625Z,101927.66
2023-05-25T00:04:43.235Z,101934.72
2023-05-25T00:07:10.920Z,101931.91
2023-05-25T00:09:38.621Z,101924.88
2023-05-25T00:12:06.489Z,101935.41
2023-05-25T00:14:34.023Z,101925.59
2023-05-25T00:17:04.546Z,101932.59
2023-05-25T00:19:35.094Z,101931.69
2023-05-25T00:22:03.196Z,101929.91
2023-05-25T00:24:31.217Z,101932.56
2023-05-25T00:26:58.944Z,101930.84
2023-05-25T00:29:26.592Z,101937.06
2023-05-25T00:31:54.259Z,101928.22
2023-05-25T00:34:22.642Z,101928.19
2023-05-25T00:36:50.381Z,101931.69
2023-05-25T00:39:21.625Z,101937.75
2023-05-25T00:41:50.231Z,101926.38
2023-05-25T00:44:21.859Z,101929.06
2023-05-25T00:46:52.585Z,101929.84
2023-05-25T00:49:23.231Z,101929.81
2023-05-25T00:51:53.070Z,101925.97
2023-05-25T00:54:20.632Z,101932.22
2023-05-25T00:56:53.395Z,101934.81
2023-05-25T00:59:33.421Z,101927.66
2023-05-25T01:02:09.578Z,101933.06
2023-05-25T01:04:59.961Z,101928.69
2023-05-25T01:07:31.533Z,101920.06
2023-05-25T01:10:02.391Z,101925.31
2023-05-25T01:12:30.859Z,101921.81
2023-05-25T01:15:00.102Z,101915.69
2023-05-25T01:17:29.214Z,101913.75
2023-05-25T01:20:09.505Z,101923.47
2023-05-25T01:22:45.578Z,101920.66
2023-05-25T01:25:21.929Z,101933.72
2023-05-25T01:27:59.925Z,101921.47
2023-05-25T01:30:30.618Z,101927.63
2023-05-25T01:33:01.152Z,101922.16
2023-05-25T01:35:30.284Z,101917.09
2023-05-25T01:37:58.887Z,101917.97
2023-05-25T01:40:27.526Z,101926.56
2023-05-25T01:42:54.994Z,101916.66
2023-05-25T01:45:22.774Z,101926.59
2023-05-25T01:48:07.235Z,101922.78
2023-05-25T01:50:54.542Z,101915.09
2023-05-25T01:53:42.829Z,101917.78
2023-05-25T01:56:13.680Z,101920.16
2023-05-25T01:58:46.931Z,101921.06
2023-05-25T02:01:17.325Z,101923.94
2023-05-25T02:03:51.649Z,101919.38
2023-05-25T02:06:19.521Z,101915.31
2023-05-25T02:08:47.011Z,101918.66
2023-05-25T02:11:14.938Z,101921.38
2023-05-25T02:13:42.567Z,101915.19
2023-05-25T02:16:10.244Z,101922.06
2023-05-25T02:18:37.851Z,101922.97
2023-05-25T02:21:05.487Z,101920.09
2023-05-25T02:23:32.933Z,101917.34
2023-05-25T02:26:00.609Z,101921.63
2023-05-25T02:28:28.816Z,101924.28
2023-05-25T02:30:56.716Z,101925.09
2023-05-25T02:33:24.191Z,101925.25
2023-05-25T02:35:51.755Z,101921.78
2023-05-25T02:38:19.237Z,101920.72
2023-05-25T02:40:46.862Z,101928.66
2023-05-25T02:43:14.493Z,101926.88
2023-05-25T02:45:42.376Z,101931.34
2023-05-25T02:48:10.005Z,101926.19
2023-05-25T02:50:37.484Z,101924.53
2023-05-25T02:53:08.314Z,101931.63
2023-05-25T02:55:35.807Z,101930.81
2023-05-25T02:58:03.714Z,101928.31
2023-05-25T03:01:00.430Z,101924.69
2023-05-25T03:03:28.821Z,101926.44
2023-05-25T03:05:59.773Z,101913.50
2023-05-25T03:08:27.374Z,101909.72
2023-05-25T03:10:55.056Z,101916.59
2023-05-25T03:13:22.562Z,101905.94
2023-05-25T03:15:50.155Z,101905.94
2023-05-25T03:18:17.904Z,101904.94
2023-05-25T03:20:45.925Z,101908.59
2023-05-25T03:23:14.102Z,101902.63
2023-05-25T03:25:41.727Z,101901.03
2023-05-25T03:28:09.416Z,101908.88
2023-05-25T03:30:36.923Z,101908.94
2023-05-25T03:33:04.658Z,101897.28
2023-05-25T03:35:36.999Z,101896.31
2023-05-25T03:38:04.549Z,101897.56
2023-05-25T03:40:32.039Z,101900.13
2023-05-25T03:42:59.856Z,101901.91
2023-05-25T03:45:27.605Z,101905.28
2023-05-25T03:47:55.257Z,101898.91
2023-05-25T03:50:22.943Z,101909.22
2023-05-25T03:52:50.821Z,101904.78
2023-05-25T03:55:18.368Z,101909.84
2023-05-25T03:57:46.114Z,101903.88
2023-05-25T04:00:14.410Z,101913.47
2023-05-25T04:02:43.400Z,101913.41
2023-05-25T04:05:10.949Z,101914.47
2023-05-25T04:07:38.711Z,101907.56
2023-05-25T04:10:07.333Z,101912.69
2023-05-25T04:12:34.976Z,101913.69
2023-05-25T04:15:04.043Z,101905.88
2023-05-25T04:17:32.235Z,101914.63
2023-05-25T04:19:59.701Z,101915.44
2023-05-25T04:22:27.242Z,101917.06
2023-05-25T04:24:55.190Z,101920.59
2023-05-25T04:27:22.972Z,101924.94
2023-05-25T04:29:50.783Z,101923.16
2023-05-25T04:32:37.488Z,101929.94
2023-05-25T04:35:23.614Z,101932.56
2023-05-25T04:37:51.764Z,101925.84
2023-05-25T04:40:21.478Z,101936.53
2023-05-25T04:42:49.413Z,101938.59
2023-05-25T04:45:17.648Z,101931.38
2023-05-25T04:47:45.999Z,101936.44
2023-05-25T04:50:13.733Z,101936.97
2023-05-25T04:52:41.256Z,101932.94
2023-05-25T04:55:10.750Z,101940.38
2023-05-25T04:57:41.241Z,101937.09
2023-05-25T05:00:10.983Z,101945.38
2023-05-25T05:02:39.957Z,101942.09
2023-05-25T05:05:08.414Z,101945.81
2023-05-25T05:07:36.130Z,101943.28
2023-05-25T05:10:04.644Z,101950.31
2023-05-25T05:12:33.603Z,101959.00
2023-05-25T05:15:02.863Z,101956.22
2023-05-25T05:17:31.247Z,101960.44
2023-05-25T05:19:59.333Z,101946.06
2023-05-25T05:22:27.305Z,101952.81
2023-05-25T05:24:54.847Z,101955.06
2023-05-25T05:27:27.017Z,101959.72
2023-05-25T05:29:59.892Z,101962.38
2023-05-25T05:32:27.591Z,101967.13
2023-05-25T05:34:56.381Z,101970.13
2023-05-25T05:37:39.393Z,101969.06
2023-05-25T05:40:07.725Z,101974.97
2023-05-25T05:42:36.378Z,101966.59
2023-05-25T05:45:04.215Z,101974.16
2023-05-25T05:47:31.904Z,101976.81
2023-05-25T05:49:59.837Z,101967.25
2023-05-25T05:52:29.696Z,101969.94
2023-05-25T05:54:57.210Z,101969.28
2023-05-25T05:57:24.727Z,101959.25
2023-05-25T05:59:52.315Z,101963.53
2023-05-25T06:02:20.394Z,101966.53
2023-05-25T06:04:48.066Z,101972.09
2023-05-25T06:07:15.736Z,101969.06
2023-05-25T06:09:43.227Z,101974.47
2023-05-25T06:12:10.983Z,101972.44
2023-05-25T06:14:38.522Z,101968.47
2023-05-25T06:17:07.023Z,101963.13
2023-05-25T06:19:34.894Z,101970.34
2023-05-25T06:22:03.955Z,101966.47
2023-05-25T06:24:31.645Z,101968.75
2023-05-25T06:26:59.127Z,101971.38
2023-05-25T06:29:26.740Z,101968.16
2023-05-25T06:31:54.875Z,101973.75
2023-05-25T06:34:22.474Z,101966.59
2023-05-25T06:36:49.948Z,101966.31
2023-05-25T06:39:18.745Z,101967.69
2023-05-25T06:41:46.304Z,101970.56
2023-05-25T06:44:25.915Z,101955.31
2023-05-25T06:46:53.504Z,101959.28
2023-05-25T06:49:21.766Z,101958.25
2023-05-25T06:51:51.242Z,101965.78
2023-05-25T06:54:19.679Z,101955.09
2023-05-25T06:56:47.305Z,101958.75
2023-05-25T06:59:15.149Z,101969.16
2023-05-25T07:01:43.392Z,101961.34
2023-05-25T07:04:11.648Z,101958.25
2023-05-25T07:06:39.217Z,101961.22
2023-05-25T07:09:08.192Z,101965.03
2023-05-25T07:11:35.817Z,101968.66
2023-05-25T07:14:03.509Z,101967.28
2023-05-25T07:16:32.080Z,101963.31
2023-05-25T07:19:00.416Z,101967.09
2023-05-25T07:21:37.698Z,101970.53
2023-05-25T07:24:07.890Z,101966.53
2023-05-25T07:26:36.676Z,101969.81
2023-05-25T07:29:04.795Z,101959.94
2023-05-25T07:31:32.244Z,101963.03
2023-05-25T07:33:59.850Z,101974.38
2023-05-25T07:36:27.340Z,101976.13
2023-05-25T07:38:54.918Z,101967.47
2023-05-25T07:41:22.998Z,101966.13
2023-05-25T07:43:52.410Z,101969.66
2023-05-25T07:46:25.250Z,101973.59
2023-05-25T07:48:54.737Z,101974.16
2023-05-25T07:51:23.514Z,101965.75
2023-05-25T07:53:52.508Z,101970.72
2023-05-25T07:56:20.265Z,101972.59
2023-05-25T07:58:47.809Z,101967.66
2023-05-25T08:01:16.325Z,101969.38
2023-05-25T08:03:49.568Z,101960.66
2023-05-25T08:06:18.179Z,101957.25
2023-05-25T08:08:45.782Z,101957.09
2023-05-25T08:11:13.555Z,101955.16
2023-05-25T08:13:41.060Z,101960.41
2023-05-25T08:16:09.244Z,101969.91
2023-05-25T08:18:36.701Z,101957.78
2023-05-25T08:21:04.413Z,101955.94
2023-05-25T08:23:31.979Z,101953.78
2023-05-25T08:26:01.151Z,101964.38
2023-05-25T08:28:28.894Z,101967.47
2023-05-25T08:30:58.764Z,101957.34
2023-05-25T08:33:26.389Z,101971.41
2023-05-25T08:35:53.982Z,101967.47
2023-05-25T08:38:25.254Z,101964.13
2023-05-25T08:41:04.451Z,101959.00
2023-05-25T08:43:33.176Z,101969.22
2023-05-25T08:46:06.342Z,101971.63
2023-05-25T08:48:41.642Z,101974.47
2023-05-25T08:51:13.567Z,101971.22
2023-05-25T08:53:43.582Z,101974.16
2023-05-25T08:56:18.526Z,101971.94
2023-05-25T08:58:53.988Z,101977.44
2023-05-25T09:01:27.621Z,101981.84
2023-05-25T09:03:57.349Z,101982.13
2023-05-25T09:06:27.190Z,101982.63
2023-05-25T09:08:55.184Z,101971.03
2023-05-25T09:11:36.114Z,101983.69
2023-05-25T09:14:08.232Z,101982.03
2023-05-25T09:16:37.791Z,101975.94
2023-05-25T09:19:05.491Z,101985.81
2023-05-25T09:21:32.974Z,101998.19
2023-05-25T09:24:00.816Z,101991.69
2023-05-25T09:26:28.646Z,101974.91
2023-05-25T09:28:56.402Z,101995.44
2023-05-25T09:31:25.171Z,101987.63
2023-05-25T09:34:00.088Z,101983.28
2023-05-25T09:36:28.340Z,101979.81
2023-05-25T09:38:56.516Z,101987.41
2023-05-25T09:41:27.753Z,101985.59
2023-05-25T09:44:09.658Z,101992.44
2023-05-25T09:46:39.728Z,101993.91
2023-05-25T09:49:10.775Z,101981.44
2023-05-25T09:51:38.819Z,101963.72
2023-05-25T09:54:11.375Z,101989.56
2023-05-25T09:56:38.972Z,101973.75
2023-05-25T09:59:06.701Z,101979.75
2023-05-25T10:01:35.222Z,102011.72
2023-05-25T10:04:04.716Z,101978.34
2023-05-25T10:06:33.918Z,101980.84
2023-05-25T10:09:02.202Z,101971.94
2023-05-25T10:11:29.749Z,101969.72
2023-05-25T10:14:03.896Z,101973.94
2023-05-25T10:16:34.563Z,101975.63
2023-05-25T10:19:08.361Z,101968.56
2023-05-25T10:21:38.125Z,102009.34
2023-05-25T10:24:35.021Z,101977.84
2023-05-25T10:27:14.515Z,101961.56
2023-05-25T10:29:49.906Z,101971.38
2023-05-25T10:32:19.044Z,102029.81
2023-05-25T10:34:46.983Z,101991.91
2023-05-25T10:37:16.243Z,101983.88
2023-05-25T10:39:44.594Z,101981.94
2023-05-25T10:42:13.394Z,101973.56
2023-05-25T10:44:44.179Z,101953.81
2023-05-25T10:47:12.554Z,101948.88
2023-05-25T10:49:58.154Z,101955.75
2023-05-25T10:52:30.834Z,101957.09
2023-05-25T10:55:07.281Z,101971.38
2023-05-25T10:57:34.990Z,101958.66
2023-05-25T11:00:08.331Z,101968.06
2023-05-25T11:02:56.157Z,101971.56
2023-05-25T11:05:26.974Z,101965.81
2023-05-25T11:07:56.639Z,101959.19
2023-05-25T11:10:49.949Z,101949.28
2023-05-25T11:13:40.851Z,101955.38
2023-05-25T11:16:17.972Z,101958.16
2023-05-25T11:18:51.663Z,101936.06
2023-05-25T11:21:29.070Z,101937.81
2023-05-25T11:24:06.797Z,101966.69
2023-05-25T11:26:35.678Z,101947.59
2023-05-25T11:29:16.378Z,101961.63
2023-05-25T11:31:44.107Z,101936.28
2023-05-25T11:34:12.530Z,101942.34
2023-05-25T11:36:41.454Z,101934.22
2023-05-25T11:39:17.125Z,101924.78
2023-05-25T11:41:56.177Z,101927.09
2023-05-25T11:44:31.866Z,101914.91
2023-05-25T11:47:14.530Z,101926.91
2023-05-25T11:49:46.258Z,101924.47
2023-05-25T11:52:18.852Z,101930.38
2023-05-25T11:54:46.766Z,101932.84
2023-05-25T11:57:24.797Z,101938.94
2023-05-25T11:59:58.186Z,101924.94
2023-05-25T12:02:26.697Z,101931.91
2023-05-25T12:05:02.102Z,101916.50
2023-05-25T12:07:31.993Z,101916.63
2023-05-25T12:10:13.981Z,101910.94
2023-05-25T12:12:47.177Z,101921.03
2023-05-25T12:15:25.314Z,101920.88
2023-05-25T12:17:54.475Z,101914.84
2023-05-25T12:20:22.502Z,101915.34
2023-05-25T12:22:50.190Z,101908.59
2023-05-25T12:25:24.635Z,101916.81
2023-05-25T12:28:12.146Z,101920.00
2023-05-25T12:30:39.908Z,101911.72
2023-05-25T12:33:07.821Z,101921.25
2023-05-25T12:35:49.945Z,101925.41
2023-05-25T12:38:19.049Z,101912.13
2023-05-25T12:40:46.891Z,101914.03
2023-05-25T12:43:17.036Z,101908.47
2023-05-25T12:45:45.016Z,101914.34
2023-05-25T12:48:12.837Z,101902.56
2023-05-25T12:50:57.198Z,101933.88
2023-05-25T12:53:25.464Z,101911.59
2023-05-25T12:56:05.147Z,101916.69
2023-05-25T12:58:32.647Z,101915.53
2023-05-25T13:01:00.203Z,101911.44
2023-05-25T13:03:27.914Z,101899.66
2023-05-25T13:06:01.002Z,101900.13
2023-05-25T13:08:29.247Z,101929.97
2023-05-25T13:10:56.850Z,101912.88
2023-05-25T13:13:24.389Z,101916.88
2023-05-25T13:15:51.857Z,101910.44
2023-05-25T13:18:19.494Z,101925.78
2023-05-25T13:20:50.037Z,101907.91
2023-05-25T13:23:18.665Z,101900.22
2023-05-25T13:25:47.087Z,101905.31
2023-05-25T13:28:14.613Z,101913.00
2023-05-25T13:30:43.113Z,101904.28
2023-05-25T13:33:11.073Z,101914.31
2023-05-25T13:35:45.974Z,101904.25
2023-05-25T13:38:15.704Z,101923.03
2023-05-25T13:40:45.607Z,101913.56
2023-05-25T13:43:13.435Z,101898.72
2023-05-25T13:45:41.101Z,101908.44
2023-05-25T13:48:09.096Z,101903.84
2023-05-25T13:50:36.634Z,101882.41
2023-05-25T13:53:04.029Z,101901.63
2023-05-25T13:55:31.598Z,101894.44
2023-05-25T13:57:59.182Z,101880.09
2023-05-25T14:00:26.838Z,101896.91
2023-05-25T14:02:54.379Z,101889.22
2023-05-25T14:05:22.084Z,101882.94
2023-05-25T14:07:50.100Z,101888.94
2023-05-25T14:10:18.596Z,101890.03
2023-05-25T14:12:46.210Z,101863.94
2023-05-25T14:15:13.775Z,101883.16
2023-05-25T14:17:41.367Z,101881.25
2023-05-25T14:20:09.829Z,101881.97
2023-05-25T14:22:37.335Z,101882.84
2023-05-25T14:25:05.290Z,101885.41
2023-05-25T14:27:32.723Z,101879.03
2023-05-25T14:30:00.269Z,101891.34
2023-05-25T14:32:27.763Z,101870.50
2023-05-25T14:34:55.315Z,101860.66
2023-05-25T14:37:22.763Z,101880.78
2023-05-25T14:39:50.433Z,101871.81
2023-05-25T14:42:17.889Z,101862.00
2023-05-25T14:44:45.554Z,101869.69
2023-05-25T14:47:13.086Z,101875.84
2023-05-25T14:49:40.717Z,101863.41
2023-05-25T14:52:08.252Z,101861.41
2023-05-25T14:54:36.135Z,101879.22
2023-05-25T14:57:03.688Z,101858.00
2023-05-25T14:59:31.124Z,101860.75
2023-05-25T15:01:58.569Z,101864.47
2023-05-25T15:04:27.256Z,101863.59
2023-05-25T15:06:54.891Z,101882.34
2023-05-25T15:09:22.468Z,101855.84
2023-05-25T15:11:49.891Z,101858.34
2023-05-25T15:14:17.505Z,101858.19
2023-05-25T15:16:45.198Z,101857.97
2023-05-25T15:19:14.522Z,101861.38
2023-05-25T15:21:44.402Z,101864.75
2023-05-25T15:24:16.607Z,101869.31
2023-05-25T15:26:44.242Z,101871.00
2023-05-25T15:29:11.685Z,101875.75
2023-05-25T15:31:39.188Z,101867.63
2023-05-25T15:34:06.660Z,101849.13
2023-05-25T15:36:34.327Z,101856.94
2023-05-25T15:39:01.798Z,101861.19
2023-05-25T15:41:29.374Z,101855.03
2023-05-25T15:44:02.843Z,101862.38
2023-05-25T15:46:30.344Z,101862.34
2023-05-25T15:48:57.937Z,101865.66
2023-05-25T15:51:25.429Z,101862.31
2023-05-25T15:53:54.891Z,101890.47
2023-05-25T15:56:23.109Z,101878.06
2023-05-25T15:58:50.636Z,101863.91
2023-05-25T16:01:18.282Z,101872.88
2023-05-25T16:03:45.823Z,101869.50
2023-05-25T16:06:13.359Z,101860.66
2023-05-25T16:08:40.821Z,101861.34
2023-05-25T16:11:08.603Z,101871.94
2023-05-25T16:13:36.237Z,101867.34
2023-05-25T16:16:03.929Z,101868.28
2023-05-25T16:18:31.521Z,101865.56
2023-05-25T16:20:59.029Z,101872.94
2023-05-25T16:23:26.901Z,101890.88
2023-05-25T16:25:54.573Z,101876.34
2023-05-25T16:28:22.093Z,101870.28
2023-05-25T16:30:49.664Z,101871.22
2023-05-25T16:33:17.282Z,101866.63
2023-05-25T16:35:45.283Z,101882.47
2023-05-25T16:38:12.954Z,101864.78
2023-05-25T16:40:40.514Z,101871.91
2023-05-25T16:43:08.054Z,101870.91
2023-05-25T16:45:35.629Z,101874.47
2023-05-25T16:48:03.456Z,101873.78
2023-05-25T16:50:30.937Z,101875.53
2023-05-25T16:52:58.410Z,101874.97
2023-05-25T16:55:26.216Z,101862.84
2023-05-25T16:57:53.728Z,101868.88
2023-05-25T17:00:21.697Z,101867.34
2023-05-25T17:02:49.231Z,101871.88
2023-05-25T17:05:16.999Z,101869.28
2023-05-25T17:07:44.696Z,101860.44
2023-05-25T17:10:12.473Z,101874.47
2023-05-25T17:12:40.028Z,101865.59
2023-05-25T17:15:08.196Z,101872.06
2023-05-25T17:17:35.622Z,101881.13
2023-05-25T17:20:04.233Z,101879.47
2023-05-25T17:22:31.777Z,101870.53
2023-05-25T17:24:59.721Z,101875.72
2023-05-25T17:27:27.189Z,101877.50
2023-05-25T17:29:54.973Z,101867.03
2023-05-25T17:32:22.549Z,101880.34
2023-05-25T17:34:50.106Z,101880.28
2023-05-25T17:37:19.012Z,101882.19
2023-05-25T17:39:46.736Z,101891.94
2023-05-25T17:42:14.366Z,101887.56
2023-05-25T17:44:42.625Z,101888.56
2023-05-25T17:47:11.251Z,101879.50
2023-05-25T17:49:38.992Z,101893.66
2023-05-25T17:52:07.665Z,101879.47
2023-05-25T17:54:35.691Z,101887.66
2023-05-25T17:57:03.633Z,101877.13
2023-05-25T17:59:31.272Z,101894.03
2023-05-25T18:01:58.807Z,101891.44
2023-05-25T18:04:26.575Z,101902.28
2023-05-25T18:06:54.222Z,101897.88
2023-05-25T18:09:21.784Z,101898.81
2023-05-25T18:11:49.409Z,101897.94
2023-05-25T18:14:16.918Z,101905.94
2023-05-25T18:16:45.012Z,101905.19
2023-05-25T18:19:14.911Z,101889.38
2023-05-25T18:21:42.467Z,101903.44
2023-05-25T18:24:10.598Z,101913.09
2023-05-25T18:26:38.188Z,101908.69
2023-05-25T18:29:05.799Z,101913.09
2023-05-25T18:31:33.590Z,101924.72
2023-05-25T18:34:01.876Z,101914.16
2023-05-25T18:36:29.504Z,101899.22
2023-05-25T18:38:57.063Z,101916.06
2023-05-25T18:41:26.983Z,101914.34
2023-05-25T18:43:54.913Z,101920.56
2023-05-25T18:46:23.420Z,101918.00
2023-05-25T18:48:51.002Z,101911.91
2023-05-25T18:51:22.905Z,101911.91
2023-05-25T18:53:50.666Z,101922.53
2023-05-25T18:56:18.193Z,101917.25
2023-05-25T18:58:45.757Z,101919.09
2023-05-25T19:01:15.581Z,101925.28
2023-05-25T19:03:48.833Z,101927.94
2023-05-25T19:06:16.718Z,101922.66
2023-05-25T19:08:44.321Z,101927.06
2023-05-25T19:11:11.881Z,101919.09
2023-05-25T19:13:39.290Z,101936.75
2023-05-25T19:16:06.990Z,101941.16
2023-05-25T19:18:34.590Z,101932.34
2023-05-25T19:21:02.469Z,101927.09
2023-05-25T19:23:29.920Z,101935.03
2023-05-25T19:25:57.741Z,101938.63
2023-05-25T19:28:25.327Z,101937.75
2023-05-25T19:30:53.114Z,101941.34
2023-05-25T19:33:20.634Z,101936.09
2023-05-25T19:35:48.356Z,101955.50
2023-05-25T19:38:15.935Z,101953.75
2023-05-25T19:40:43.895Z,101950.22
2023-05-25T19:43:11.625Z,101955.50
2023-05-25T19:45:39.285Z,101951.97
2023-05-25T19:48:06.822Z,101952.91
2023-05-25T19:50:34.781Z,101957.28
2023-05-25T19:53:03.091Z,101968.75
2023-05-25T19:55:31.048Z,101971.41
2023-05-25T19:57:58.504Z,101972.25
2023-05-25T20:00:27.207Z,101982.88
2023-05-25T20:02:55.161Z,101981.09
2023-05-25T20:05:23.050Z,101996.94
2023-05-25T20:07:52.324Z,101998.69
2023-05-25T20:10:20.223Z,101999.56
2023-05-25T20:12:47.784Z,101994.28
2023-05-25T20:15:15.935Z,101996.06
2023-05-25T20:17:43.505Z,102003.09
2023-05-25T20:20:11.415Z,102004.84
2023-05-25T20:22:41.094Z,102007.50
2023-05-25T20:25:17.436Z,102014.50
2023-05-25T20:27:44.948Z,102008.34
2023-05-25T20:30:13.864Z,102016.28
2023-05-25T20:32:43.695Z,102015.38
2023-05-25T20:35:13.123Z,102024.19
2023-05-25T20:37:41.952Z,102020.63
2023-05-25T20:40:09.897Z,102019.75
2023-05-25T20:42:37.703Z,102032.06
2023-05-25T20:45:05.628Z,102032.94
2023-05-25T20:47:33.160Z,102039.09
2023-05-25T20:50:00.650Z,102046.13
2023-05-25T20:52:28.468Z,102038.19
2023-05-25T20:54:56.158Z,102042.56
2023-05-25T20:57:23.768Z,102049.56
2023-05-25T20:59:51.779Z,102048.63
2023-05-25T21:02:19.317Z,102053.03
2023-05-25T21:04:46.799Z,102058.22
2023-05-25T21:07:14.414Z,102057.38
2023-05-25T21:09:41.901Z,102056.44
2023-05-25T21:12:09.332Z,102062.56
2023-05-25T21:14:36.892Z,102059.94
2023-05-25T21:17:04.595Z,102072.16
2023-05-25T21:19:32.182Z,102069.47
2023-05-25T21:22:00.364Z,102064.19
2023-05-25T21:24:27.828Z,102065.88
2023-05-25T21:26:55.630Z,102061.50
2023-05-25T21:29:23.058Z,102070.31
2023-05-25T21:31:50.712Z,102061.38
2023-05-25T21:34:18.254Z,102069.34
2023-05-25T21:36:45.829Z,102069.44
2023-05-25T21:39:13.436Z,102072.13
2023-05-25T21:41:41.515Z,102075.63
2023-05-25T21:44:08.942Z,102085.19
2023-05-25T21:46:37.827Z,102078.94
2023-05-25T21:49:05.356Z,102079.69
2023-05-25T21:51:33.148Z,102080.56
2023-05-25T21:54:00.701Z,102085.81
2023-05-25T21:56:28.253Z,102077.72
2023-05-25T21:58:55.752Z,102078.63
2023-05-25T22:01:23.955Z,102082.91
2023-05-25T22:03:51.694Z,102084.69
2023-05-25T22:06:19.294Z,102088.13
2023-05-25T22:08:46.952Z,102088.00
2023-05-25T22:11:14.516Z,102085.38
2023-05-25T22:13:41.917Z,102079.19
2023-05-25T22:16:09.564Z,102086.19
2023-05-25T22:18:38.521Z,102082.72
2023-05-25T22:21:06.396Z,102086.09
2023-05-25T22:23:33.819Z,102092.31
2023-05-25T22:26:01.371Z,102095.69
2023-05-25T22:28:28.835Z,102103.47
2023-05-25T22:30:56.656Z,102105.31
2023-05-25T22:33:24.087Z,102097.34
2023-05-25T22:35:52.305Z,102091.25
2023-05-25T22:38:19.796Z,102089.34
2023-05-25T22:40:47.866Z,102089.25
2023-05-25T22:43:15.508Z,102088.41
2023-05-25T22:45:43.085Z,102087.41
2023-05-25T22:48:12.775Z,102086.69
2023-05-25T22:50:40.630Z,102089.22
2023-05-25T22:53:08.096Z,102094.50
2023-05-25T22:55:35.632Z,102094.53
2023-05-25T22:58:03.118Z,102094.41
2023-05-25T23:00:30.769Z,102099.59
2023-05-25T23:02:59.058Z,102097.59
2023-05-25T23:05:27.265Z,102102.84
2023-05-25T23:07:54.670Z,102095.84
2023-05-25T23:10:22.138Z,102091.19
2023-05-25T23:12:50.460Z,102092.03
2023-05-25T23:15:18.697Z,102084.22
2023-05-25T23:17:46.257Z,102092.31
2023-05-25T23:20:14.057Z,102088.63
2023-05-25T23:22:42.921Z,102086.84
2023-05-25T23:25:10.686Z,102086.00
2023-05-25T23:27:38.171Z,102088.56
2023-05-25T23:30:08.959Z,102092.88
2023-05-25T23:32:36.878Z,102094.59
2023-05-25T23:35:04.614Z,102093.63
2023-05-25T23:37:32.189Z,102102.28
2023-05-25T23:39:59.582Z,102084.78
2023-05-25T23:42:37.248Z,102098.78
2023-05-25T23:45:05.352Z,102096.94
2023-05-25T23:47:32.821Z,102092.25
2023-05-25T23:50:00.630Z,102096.56
2023-05-25T23:52:28.124Z,102088.75
2023-05-25T23:54:55.952Z,102093.22
2023-05-25T23:57:23.765Z,102086.22
2023-05-25T23:59:51.486Z,102088.88
